sensor_id;sensor_type;location;lat;lon;timestamp;pressure;altitude;pressure_sealevel;temperature;humidity
13050;BME280;6591;51.446;5.404;2022-08-19T00:02:03;101011.75;;;23.84;51.64
13050;BME280;6591;51.446;5.404;2022-08-19T00:04:34;101009.16;;;23.82;51.84
13050;BME280;6591;51.446;5.404;2022-08-19T00:07:05;101012.91;;;23.81;51.78
13050;BME280;6591;51.446;5.404;2022-08-19T00:09:33;101014.06;;;23.79;52.15
13050;BME280;6591;51.446;5.404;2022-08-19T00:12:00;101014.91;;;23.79;51.87
13050;BME280;6591;51.446;5.404;2022-08-19T00:14:29;101015.06;;;23.78;52.12
13050;BME280;6591;51.446;5.404;2022-08-19T00:17:00;101007.91;;;23.77;51.95
13050;BME280;6591;51.446;5.404;2022-08-19T00:19:27;101009.78;;;23.76;52.14
13050;BME280;6591;51.446;5.404;2022-08-19T00:21:56;101022.34;;;23.77;52.27
13050;BME280;6591;51.446;5.404;2022-08-19T00:24:39;101021.34;;;23.78;52.62
13050;BME280;6591;51.446;5.404;2022-08-19T00:27:16;101017.75;;;23.78;52.64
13050;BME280;6591;51.446;5.404;2022-08-19T00:29:52;101024.91;;;23.79;52.48
13050;BME280;6591;51.446;5.404;2022-08-19T00:32:19;101018.63;;;23.78;52.42
13050;BME280;6591;51.446;5.404;2022-08-19T00:34:47;101024.91;;;23.79;52.22
13050;BME280;6591;51.446;5.404;2022-08-19T00:37:14;101025.91;;;23.78;52.50
13050;BME280;6591;51.446;5.404;2022-08-19T00:39:41;101027.94;;;23.76;52.17
13050;BME280;6591;51.446;5.404;2022-08-19T00:42:08;101030.94;;;23.73;52.38
13050;BME280;6591;51.446;5.404;2022-08-19T00:44:37;101027.53;;;23.71;52.48
13050;BME280;6591;51.446;5.404;2022-08-19T00:47:04;101030.38;;;23.69;52.66
13050;BME280;6591;51.446;5.404;2022-08-19T00:49:48;101026.09;;;23.67;52.43
13050;BME280;6591;51.446;5.404;2022-08-19T00:52:26;101025.53;;;23.63;52.92
13050;BME280;6591;51.446;5.404;2022-08-19T00:54:57;101022.97;;;23.61;52.38
13050;BME280;6591;51.446;5.404;2022-08-19T00:57:37;101023.97;;;23.60;52.65
13050;BME280;6591;51.446;5.404;2022-08-19T01:00:16;101027.13;;;23.56;52.84
13050;BME280;6591;51.446;5.404;2022-08-19T01:02:45;101035.28;;;23.56;52.71
13050;BME280;6591;51.446;5.404;2022-08-19T01:05:25;101029.31;;;23.52;52.61
13050;BME280;6591;51.446;5.404;2022-08-19T01:07:58;101025.88;;;23.50;52.63
13050;BME280;6591;51.446;5.404;2022-08-19T01:10:32;101026.72;;;23.51;53.17
13050;BME280;6591;51.446;5.404;2022-08-19T01:13:04;101026.72;;;23.51;53.34
13050;BME280;6591;51.446;5.404;2022-08-19T01:15:40;101030.59;;;23.48;53.38
13050;BME280;6591;51.446;5.404;2022-08-19T01:18:13;101023.75;;;23.44;52.74
13050;BME280;6591;51.446;5.404;2022-08-19T01:20:43;101018.19;;;23.46;53.26
13050;BME280;6591;51.446;5.404;2022-08-19T01:23:12;101023.59;;;23.46;53.52
13050;BME280;6591;51.446;5.404;2022-08-19T01:25:50;101010.34;;;23.43;53.58
13050;BME280;6591;51.446;5.404;2022-08-19T01:28:26;101014.03;;;23.42;53.70
13050;BME280;6591;51.446;5.404;2022-08-19T01:31:14;101023.16;;;23.41;53.25
13050;BME280;6591;51.446;5.404;2022-08-19T01:33:56;101021.31;;;23.41;53.57
13050;BME280;6591;51.446;5.404;2022-08-19T01:36:36;101019.91;;;23.37;53.55
13050;BME280;6591;51.446;5.404;2022-08-19T01:39:11;101019.91;;;23.37;53.40
13050;BME280;6591;51.446;5.404;2022-08-19T01:41:38;101024.34;;;23.38;53.33
13050;BME280;6591;51.446;5.404;2022-08-19T01:44:09;101020.91;;;23.36;53.86
13050;BME280;6591;51.446;5.404;2022-08-19T01:46:47;101015.63;;;23.35;53.68
13050;BME280;6591;51.446;5.404;2022-08-19T01:49:17;101020.34;;;23.33;54.00
13050;BME280;6591;51.446;5.404;2022-08-19T01:51:45;101017.50;;;23.34;53.28
13050;BME280;6591;51.446;5.404;2022-08-19T01:54:14;101019.50;;;23.32;53.62
13050;BME280;6591;51.446;5.404;2022-08-19T01:57:00;101028.63;;;23.31;53.79
13050;BME280;6591;51.446;5.404;2022-08-19T01:59:32;101025.06;;;23.31;53.62
13050;BME280;6591;51.446;5.404;2022-08-19T02:02:00;101029.63;;;23.30;53.68
13050;BME280;6591;51.446;5.404;2022-08-19T02:04:27;101023.50;;;23.28;53.79
13050;BME280;6591;51.446;5.404;2022-08-19T02:06:54;101027.22;;;23.27;53.51
13050;BME280;6591;51.446;5.404;2022-08-19T02:09:21;101026.66;;;23.23;53.90
13050;BME280;6591;51.446;5.404;2022-08-19T02:11:48;101033.06;;;23.22;53.85
13050;BME280;6591;51.446;5.404;2022-08-19T02:14:16;101041.34;;;23.21;53.57
13050;BME280;6591;51.446;5.404;2022-08-19T02:16:43;101038.94;;;23.18;53.35
13050;BME280;6591;51.446;5.404;2022-08-19T02:19:10;101045.50;;;23.15;53.43
13050;BME280;6591;51.446;5.404;2022-08-19T02:21:37;101045.63;;;23.14;53.55
13050;BME280;6591;51.446;5.404;2022-08-19T02:24:04;101045.06;;;23.10;53.90
13050;BME280;6591;51.446;5.404;2022-08-19T02:26:33;101040.81;;;23.08;53.54
13050;BME280;6591;51.446;5.404;2022-08-19T02:29:00;101049.06;;;23.06;53.68
13050;BME280;6591;51.446;5.404;2022-08-19T02:31:27;101049.34;;;23.03;53.67
13050;BME280;6591;51.446;5.404;2022-08-19T02:33:56;101053.22;;;23.01;53.56
13050;BME280;6591;51.446;5.404;2022-08-19T02:36:27;101054.34;;;22.98;53.69
13050;BME280;6591;51.446;5.404;2022-08-19T02:38:56;101046.53;;;22.95;53.71
13050;BME280;6591;51.446;5.404;2022-08-19T02:41:28;101052.25;;;22.92;54.35
13050;BME280;6591;51.446;5.404;2022-08-19T02:44:02;101054.94;;;22.92;53.78
13050;BME280;6591;51.446;5.404;2022-08-19T02:46:51;101058.47;;;22.93;54.00
13050;BME280;6591;51.446;5.404;2022-08-19T02:49:19;101057.66;;;22.92;53.92
13050;BME280;6591;51.446;5.404;2022-08-19T02:51:48;101067.78;;;22.90;53.98
13050;BME280;6591;51.446;5.404;2022-08-19T02:54:15;101068.75;;;22.89;53.63
13050;BME280;6591;51.446;5.404;2022-08-19T02:56:44;101058.91;;;22.88;54.07
13050;BME280;6591;51.446;5.404;2022-08-19T02:59:12;101058.22;;;22.86;53.88
13050;BME280;6591;51.446;5.404;2022-08-19T03:01:41;101060.34;;;22.83;53.99
13050;BME280;6591;51.446;5.404;2022-08-19T03:04:12;101048.09;;;22.78;54.16
13050;BME280;6591;51.446;5.404;2022-08-19T03:06:44;101050.66;;;22.80;54.04
13050;BME280;6591;51.446;5.404;2022-08-19T03:09:13;101050.53;;;22.82;54.21
13050;BME280;6591;51.446;5.404;2022-08-19T03:11:41;101057.63;;;22.83;54.27
13050;BME280;6591;51.446;5.404;2022-08-19T03:14:09;101052.50;;;22.79;54.11
13050;BME280;6591;51.446;5.404;2022-08-19T03:16:45;101055.34;;;22.78;54.29
13050;BME280;6591;51.446;5.404;2022-08-19T03:19:16;101059.06;;;22.77;54.18
13050;BME280;6591;51.446;5.404;2022-08-19T03:21:45;101067.78;;;22.80;54.55
13050;BME280;6591;51.446;5.404;2022-08-19T03:24:14;101062.50;;;22.79;54.50
13050;BME280;6591;51.446;5.404;2022-08-19T03:26:50;101056.50;;;22.75;54.06
13050;BME280;6591;51.446;5.404;2022-08-19T03:29:19;101052.94;;;22.75;54.47
13050;BME280;6591;51.446;5.404;2022-08-19T03:32:03;101064.78;;;22.74;54.27
13050;BME280;6591;51.446;5.404;2022-08-19T03:34:33;101060.22;;;22.74;54.31
13050;BME280;6591;51.446;5.404;2022-08-19T03:37:09;101058.50;;;22.73;54.23
13050;BME280;6591;51.446;5.404;2022-08-19T03:39:39;101053.09;;;22.73;54.66
13050;BME280;6591;51.446;5.404;2022-08-19T03:42:08;101048.53;;;22.74;54.48
13050;BME280;6591;51.446;5.404;2022-08-19T03:44:55;101046.97;;;22.71;54.67
13050;BME280;6591;51.446;5.404;2022-08-19T03:47:22;101040.69;;;22.71;54.34
13050;BME280;6591;51.446;5.404;2022-08-19T03:49:49;101040.81;;;22.69;54.14
13050;BME280;6591;51.446;5.404;2022-08-19T03:52:16;101032.81;;;22.68;54.21
13050;BME280;6591;51.446;5.404;2022-08-19T03:54:43;101041.78;;;22.68;54.24
13050;BME280;6591;51.446;5.404;2022-08-19T03:57:11;101047.22;;;22.68;54.31
13050;BME280;6591;51.446;5.404;2022-08-19T03:59:39;101052.91;;;22.65;54.63
13050;BME280;6591;51.446;5.404;2022-08-19T04:02:10;101056.63;;;22.64;54.30
13050;BME280;6591;51.446;5.404;2022-08-19T04:04:41;101046.06;;;22.61;53.95
13050;BME280;6591;51.446;5.404;2022-08-19T04:07:15;101047.06;;;22.60;54.44
13050;BME280;6591;51.446;5.404;2022-08-19T04:09:43;101041.94;;;22.57;54.64
13050;BME280;6591;51.446;5.404;2022-08-19T04:12:11;101048.34;;;22.56;54.35
13050;BME280;6591;51.446;5.404;2022-08-19T04:14:38;101043.09;;;22.55;54.46
13050;BME280;6591;51.446;5.404;2022-08-19T04:17:08;101044.22;;;22.52;54.29
13050;BME280;6591;51.446;5.404;2022-08-19T04:19:35;101045.19;;;22.51;54.20
13050;BME280;6591;51.446;5.404;2022-08-19T04:22:04;101045.34;;;22.50;54.18
13050;BME280;6591;51.446;5.404;2022-08-19T04:24:31;101047.34;;;22.48;54.55
13050;BME280;6591;51.446;5.404;2022-08-19T04:27:01;101042.22;;;22.45;54.24
13050;BME280;6591;51.446;5.404;2022-08-19T04:29:29;101041.50;;;22.43;54.23
13050;BME280;6591;51.446;5.404;2022-08-19T04:32:01;101040.06;;;22.38;54.08
13050;BME280;6591;51.446;5.404;2022-08-19T04:34:36;101028.66;;;22.35;54.39
13050;BME280;6591;51.446;5.404;2022-08-19T04:37:26;101037.06;;;22.32;54.16
13050;BME280;6591;51.446;5.404;2022-08-19T04:40:04;101038.34;;;22.28;54.35
13050;BME280;6591;51.446;5.404;2022-08-19T04:42:50;101035.34;;;22.21;54.43
13050;BME280;6591;51.446;5.404;2022-08-19T04:45:17;101037.31;;;22.19;54.24
13050;BME280;6591;51.446;5.404;2022-08-19T04:47:46;101036.75;;;22.16;54.58
13050;BME280;6591;51.446;5.404;2022-08-19T04:50:26;101044.16;;;22.14;54.36
13050;BME280;6591;51.446;5.404;2022-08-19T04:52:53;101043.44;;;22.12;54.44
13050;BME280;6591;51.446;5.404;2022-08-19T04:55:22;101056.97;;;22.12;54.51
13050;BME280;6591;51.446;5.404;2022-08-19T04:57:54;101054.13;;;22.13;54.68
13050;BME280;6591;51.446;5.404;2022-08-19T05:00:21;101052.41;;;22.12;55.03
13050;BME280;6591;51.446;5.404;2022-08-19T05:02:49;101058.53;;;22.14;55.08
13050;BME280;6591;51.446;5.404;2022-08-19T05:05:16;101060.41;;;22.14;55.19
13050;BME280;6591;51.446;5.404;2022-08-19T05:07:46;101061.22;;;22.14;54.59
13050;BME280;6591;51.446;5.404;2022-08-19T05:10:13;101066.50;;;22.16;54.74
13050;BME280;6591;51.446;5.404;2022-08-19T05:12:40;101067.50;;;22.15;54.92
13050;BME280;6591;51.446;5.404;2022-08-19T05:15:08;101073.63;;;22.17;54.96
13050;BME280;6591;51.446;5.404;2022-08-19T05:17:35;101071.78;;;22.17;54.91
13050;BME280;6591;51.446;5.404;2022-08-19T05:20:07;101079.78;;;22.19;55.01
13050;BME280;6591;51.446;5.404;2022-08-19T05:22:53;101080.75;;;22.18;55.53
13050;BME280;6591;51.446;5.404;2022-08-19T05:25:21;101086.75;;;22.21;55.17
13050;BME280;6591;51.446;5.404;2022-08-19T05:27:49;101093.75;;;22.24;55.47
13050;BME280;6591;51.446;5.404;2022-08-19T05:30:17;101098.88;;;22.27;55.52
13050;BME280;6591;51.446;5.404;2022-08-19T05:32:50;101105.69;;;22.31;55.24
13050;BME280;6591;51.446;5.404;2022-08-19T05:35:20;101109.00;;;22.34;55.57
13050;BME280;6591;51.446;5.404;2022-08-19T05:37:47;101109.56;;;22.38;55.84
13050;BME280;6591;51.446;5.404;2022-08-19T05:40:22;101115.44;;;22.43;55.64
13050;BME280;6591;51.446;5.404;2022-08-19T05:42:52;101108.59;;;22.49;56.04
13050;BME280;6591;51.446;5.404;2022-08-19T05:45:21;101112.59;;;22.54;56.08
13050;BME280;6591;51.446;5.404;2022-08-19T05:47:48;101112.06;;;22.60;56.16
13050;BME280;6591;51.446;5.404;2022-08-19T05:50:15;101110.63;;;22.66;56.25
13050;BME280;6591;51.446;5.404;2022-08-19T05:52:44;101109.94;;;22.73;56.08
13050;BME280;6591;51.446;5.404;2022-08-19T05:55:16;101101.25;;;22.79;56.21
13050;BME280;6591;51.446;5.404;2022-08-19T05:57:43;101102.41;;;22.87;55.66
13050;BME280;6591;51.446;5.404;2022-08-19T06:00:11;101098.13;;;22.94;55.84
13050;BME280;6591;51.446;5.404;2022-08-19T06:02:40;101102.84;;;23.01;56.17
13050;BME280;6591;51.446;5.404;2022-08-19T06:05:08;101095.00;;;23.08;55.80
13050;BME280;6591;51.446;5.404;2022-08-19T06:07:37;101102.38;;;23.15;56.31
13050;BME280;6591;51.446;5.404;2022-08-19T06:10:10;101090.97;;;23.21;56.29
13050;BME280;6591;51.446;5.404;2022-08-19T06:12:37;101082.97;;;23.30;56.22
13050;BME280;6591;51.446;5.404;2022-08-19T06:15:10;101088.41;;;23.39;56.17
13050;BME280;6591;51.446;5.404;2022-08-19T06:17:38;101087.53;;;23.48;56.12
13050;BME280;6591;51.446;5.404;2022-08-19T06:20:10;101088.38;;;23.58;55.90
13050;BME280;6591;51.446;5.404;2022-08-19T06:22:42;101094.91;;;23.66;55.73
13050;BME280;6591;51.446;5.404;2022-08-19T06:25:13;101090.59;;;23.73;55.90
13050;BME280;6591;51.446;5.404;2022-08-19T06:27:41;101080.72;;;23.81;55.99
13050;BME280;6591;51.446;5.404;2022-08-19T06:30:28;101078.97;;;23.90;56.01
13050;BME280;6591;51.446;5.404;2022-08-19T06:32:56;101090.63;;;24.00;56.19
13050;BME280;6591;51.446;5.404;2022-08-19T06:35:23;101083.59;;;24.07;55.90
13050;BME280;6591;51.446;5.404;2022-08-19T06:37:50;101077.00;;;24.10;55.83
13050;BME280;6591;51.446;5.404;2022-08-19T06:40:19;101085.97;;;24.20;55.68
13050;BME280;6591;51.446;5.404;2022-08-19T06:42:46;101083.84;;;24.23;56.14
13050;BME280;6591;51.446;5.404;2022-08-19T06:45:20;101080.88;;;24.34;55.92
13050;BME280;6591;51.446;5.404;2022-08-19T06:47:52;101087.09;;;24.44;55.75
13050;BME280;6591;51.446;5.404;2022-08-19T06:50:24;101096.06;;;24.55;56.11
13050;BME280;6591;51.446;5.404;2022-08-19T06:52:51;101088.53;;;24.66;55.92
13050;BME280;6591;51.446;5.404;2022-08-19T06:55:20;101093.75;;;24.77;55.98
13050;BME280;6591;51.446;5.404;2022-08-19T06:57:47;101094.41;;;24.89;55.58
13050;BME280;6591;51.446;5.404;2022-08-19T07:00:15;101085.88;;;25.02;56.25
13050;BME280;6591;51.446;5.404;2022-08-19T07:02:44;101091.88;;;25.13;55.67
13050;BME280;6591;51.446;5.404;2022-08-19T07:05:22;101084.19;;;25.26;55.58
13050;BME280;6591;51.446;5.404;2022-08-19T07:07:49;101086.00;;;25.44;55.35
13050;BME280;6591;51.446;5.404;2022-08-19T07:10:17;101092.75;;;25.57;54.86
13050;BME280;6591;51.446;5.404;2022-08-19T07:12:45;101095.03;;;25.70;55.00
13050;BME280;6591;51.446;5.404;2022-08-19T07:15:13;101095.31;;;25.85;54.76
13050;BME280;6591;51.446;5.404;2022-08-19T07:17:40;101093.13;;;25.96;54.86
13050;BME280;6591;51.446;5.404;2022-08-19T07:20:09;101089.97;;;26.09;54.80
13050;BME280;6591;51.446;5.404;2022-08-19T07:22:38;101095.53;;;26.25;54.13
13050;BME280;6591;51.446;5.404;2022-08-19T07:25:08;101102.19;;;26.39;54.33
13050;BME280;6591;51.446;5.404;2022-08-19T07:27:36;101100.72;;;26.52;54.11
13050;BME280;6591;51.446;5.404;2022-08-19T07:30:07;101109.09;;;26.67;53.71
13050;BME280;6591;51.446;5.404;2022-08-19T07:32:39;101104.84;;;26.81;53.73
13050;BME280;6591;51.446;5.404;2022-08-19T07:35:07;101102.34;;;26.95;54.20
13050;BME280;6591;51.446;5.404;2022-08-19T07:37:36;101102.34;;;27.12;54.04
13050;BME280;6591;51.446;5.404;2022-08-19T07:40:06;101109.50;;;27.29;54.01
13050;BME280;6591;51.446;5.404;2022-08-19T07:42:34;101105.38;;;27.49;53.54
13050;BME280;6591;51.446;5.404;2022-08-19T07:45:02;101118.88;;;27.67;53.47
13050;BME280;6591;51.446;5.404;2022-08-19T07:47:35;101120.19;;;27.87;53.34
13050;BME280;6591;51.446;5.404;2022-08-19T07:50:19;101132.59;;;28.14;53.26
13050;BME280;6591;51.446;5.404;2022-08-19T07:52:48;101126.88;;;28.32;53.11
13050;BME280;6591;51.446;5.404;2022-08-19T07:55:21;101128.34;;;28.50;52.69
13050;BME280;6591;51.446;5.404;2022-08-19T07:58:38;101135.75;;;28.64;51.92
13050;BME280;6591;51.446;5.404;2022-08-19T08:01:10;101140.50;;;28.79;51.45
13050;BME280;6591;51.446;5.404;2022-08-19T08:03:38;101134.31;;;28.85;51.52
13050;BME280;6591;51.446;5.404;2022-08-19T08:06:24;101135.47;;;28.90;51.38
13050;BME280;6591;51.446;5.404;2022-08-19T08:09:11;101139.06;;;28.91;50.56
13050;BME280;6591;51.446;5.404;2022-08-19T08:11:53;101135.47;;;28.90;50.46
13050;BME280;6591;51.446;5.404;2022-08-19T08:14:35;101144.69;;;28.89;50.51
13050;BME280;6591;51.446;5.404;2022-08-19T08:17:10;101148.13;;;28.91;50.43
13050;BME280;6591;51.446;5.404;2022-08-19T08:24:10;101149.25;;;28.74;50.55
13050;BME280;6591;51.446;5.404;2022-08-19T08:26:38;101153.84;;;28.74;50.05
13050;BME280;6591;51.446;5.404;2022-08-19T08:29:13;101156.59;;;28.74;49.97
13050;BME280;6591;51.446;5.404;2022-08-19T08:31:47;101157.63;;;28.73;49.86
13050;BME280;6591;51.446;5.404;2022-08-19T08:34:24;101174.34;;;28.78;50.39
13050;BME280;6591;51.446;5.404;2022-08-19T08:36:51;101164.38;;;28.85;50.29
13050;BME280;6591;51.446;5.404;2022-08-19T08:39:20;101175.28;;;28.93;49.89
13050;BME280;6591;51.446;5.404;2022-08-19T08:44:58;101173.31;;;29.10;49.93
13050;BME280;6591;51.446;5.404;2022-08-19T08:47:35;101175.41;;;29.22;49.55
13050;BME280;6591;51.446;5.404;2022-08-19T08:50:20;101180.50;;;29.33;49.33
13050;BME280;6591;51.446;5.404;2022-08-19T08:52:56;101178.47;;;29.50;49.34
13050;BME280;6591;51.446;5.404;2022-08-19T08:55:28;101178.13;;;29.68;49.63
13050;BME280;6591;51.446;5.404;2022-08-19T08:58:26;101180.34;;;29.87;49.06
13050;BME280;6591;51.446;5.404;2022-08-19T09:00:55;101167.16;;;30.05;48.80
13050;BME280;6591;51.446;5.404;2022-08-19T09:03:26;101168.41;;;30.17;48.62
13050;BME280;6591;51.446;5.404;2022-08-19T09:14:58;101171.16;;;30.47;47.26
13050;BME280;6591;51.446;5.404;2022-08-19T09:17:32;101178.25;;;30.56;47.33
13050;BME280;6591;51.446;5.404;2022-08-19T09:20:34;101174.44;;;30.57;46.85
13050;BME280;6591;51.446;5.404;2022-08-19T09:23:01;101168.09;;;30.71;47.04
13050;BME280;6591;51.446;5.404;2022-08-19T09:25:28;101177.50;;;30.83;47.24
13050;BME280;6591;51.446;5.404;2022-08-19T09:27:57;101172.56;;;30.93;46.59
13050;BME280;6591;51.446;5.404;2022-08-19T09:30:39;101184.28;;;31.02;45.78
13050;BME280;6591;51.446;5.404;2022-08-19T09:33:07;101183.53;;;31.08;46.00
13050;BME280;6591;51.446;5.404;2022-08-19T09:35:34;101188.16;;;31.07;45.73
13050;BME280;6591;51.446;5.404;2022-08-19T09:38:21;101185.63;;;31.06;45.28
13050;BME280;6591;51.446;5.404;2022-08-19T09:40:49;101187.22;;;31.00;45.24
13050;BME280;6591;51.446;5.404;2022-08-19T09:43:20;101184.19;;;30.95;45.36
13050;BME280;6591;51.446;5.404;2022-08-19T09:46:01;101191.97;;;30.92;44.97
13050;BME280;6591;51.446;5.404;2022-08-19T09:48:28;101181.19;;;30.90;45.20
13050;BME280;6591;51.446;5.404;2022-08-19T09:51:10;101183.25;;;30.88;45.22
13050;BME280;6591;51.446;5.404;2022-08-19T09:53:39;101182.88;;;30.91;45.04
13050;BME280;6591;51.446;5.404;2022-08-19T09:56:10;101190.09;;;30.92;45.11
13050;BME280;6591;51.446;5.404;2022-08-19T09:58:39;101185.72;;;30.98;45.30
13050;BME280;6591;51.446;5.404;2022-08-19T10:01:07;101186.66;;;31.05;45.52
13050;BME280;6591;51.446;5.404;2022-08-19T10:03:36;101195.41;;;31.15;45.12
13050;BME280;6591;51.446;5.404;2022-08-19T10:06:05;101195.94;;;31.25;45.13
13050;BME280;6591;51.446;5.404;2022-08-19T10:08:43;101198.38;;;31.35;45.04
13050;BME280;6591;51.446;5.404;2022-08-19T10:11:16;101191.03;;;31.42;44.37
13050;BME280;6591;51.446;5.404;2022-08-19T10:14:03;101182.63;;;31.43;44.63
13050;BME280;6591;51.446;5.404;2022-08-19T10:16:34;101191.09;;;31.48;43.63
13050;BME280;6591;51.446;5.404;2022-08-19T10:19:05;101184.50;;;31.43;43.99
13050;BME280;6591;51.446;5.404;2022-08-19T10:21:33;101180.66;;;31.37;44.12
13050;BME280;6591;51.446;5.404;2022-08-19T10:24:04;101190.06;;;31.28;43.37
13050;BME280;6591;51.446;5.404;2022-08-19T10:26:38;101187.44;;;31.20;43.17
13050;BME280;6591;51.446;5.404;2022-08-19T10:29:08;101184.06;;;31.18;43.96
13050;BME280;6591;51.446;5.404;2022-08-19T10:31:36;101194.19;;;31.18;44.11
13050;BME280;6591;51.446;5.404;2022-08-19T10:34:24;101196.53;;;31.21;43.70
13050;BME280;6591;51.446;5.404;2022-08-19T10:36:55;101194.03;;;31.26;43.92
13050;BME280;6591;51.446;5.404;2022-08-19T10:39:35;101185.69;;;31.34;44.07
13050;BME280;6591;51.446;5.404;2022-08-19T10:42:10;101179.94;;;31.50;43.60
13050;BME280;6591;51.446;5.404;2022-08-19T10:44:38;101182.81;;;31.63;43.56
13050;BME280;6591;51.446;5.404;2022-08-19T10:47:06;101185.94;;;31.81;43.99
13050;BME280;6591;51.446;5.404;2022-08-19T10:49:51;101187.53;;;32.04;43.84
13050;BME280;6591;51.446;5.404;2022-08-19T10:52:40;101184.16;;;32.29;42.94
13050;BME280;6591;51.446;5.404;2022-08-19T10:55:21;101174.50;;;32.47;43.20
13050;BME280;6591;51.446;5.404;2022-08-19T10:58:16;101166.75;;;32.63;42.12
13050;BME280;6591;51.446;5.404;2022-08-19T11:00:56;101169.19;;;32.79;42.17
13050;BME280;6591;51.446;5.404;2022-08-19T11:03:26;101163.91;;;32.98;42.14
13050;BME280;6591;51.446;5.404;2022-08-19T11:06:06;101165.06;;;33.16;42.09
13050;BME280;6591;51.446;5.404;2022-08-19T11:08:35;101172.72;;;33.47;42.31
13050;BME280;6591;51.446;5.404;2022-08-19T11:11:06;101170.00;;;33.80;41.06
13050;BME280;6591;51.446;5.404;2022-08-19T11:13:38;101168.06;;;34.07;40.68
13050;BME280;6591;51.446;5.404;2022-08-19T11:16:16;101165.88;;;34.35;40.74
13050;BME280;6591;51.446;5.404;2022-08-19T11:18:53;101160.25;;;34.62;39.99
13050;BME280;6591;51.446;5.404;2022-08-19T11:21:37;101169.47;;;34.87;39.42
13050;BME280;6591;51.446;5.404;2022-08-19T11:24:09;101164.69;;;35.07;39.33
13050;BME280;6591;51.446;5.404;2022-08-19T11:26:39;101172.25;;;35.25;38.84
13050;BME280;6591;51.446;5.404;2022-08-19T11:29:12;101164.28;;;35.42;38.68
13050;BME280;6591;51.446;5.404;2022-08-19T11:31:46;101164.41;;;35.53;38.19
13050;BME280;6591;51.446;5.404;2022-08-19T11:34:23;101151.81;;;35.57;37.93
13050;BME280;6591;51.446;5.404;2022-08-19T11:36:51;101158.78;;;35.60;37.54
13050;BME280;6591;51.446;5.404;2022-08-19T11:39:22;101154.78;;;35.56;37.24
13050;BME280;6591;51.446;5.404;2022-08-19T11:41:50;101151.00;;;35.50;36.99
13050;BME280;6591;51.446;5.404;2022-08-19T11:44:18;101147.22;;;35.45;37.44
13050;BME280;6591;51.446;5.404;2022-08-19T11:46:46;101145.31;;;35.45;37.37
13050;BME280;6591;51.446;5.404;2022-08-19T11:49:16;101145.31;;;35.45;37.03
13050;BME280;6591;51.446;5.404;2022-08-19T11:51:43;101155.09;;;35.48;37.28
13050;BME280;6591;51.446;5.404;2022-08-19T11:54:12;101149.47;;;35.54;36.65
13050;BME280;6591;51.446;5.404;2022-08-19T11:56:41;101148.56;;;35.67;37.03
13050;BME280;6591;51.446;5.404;2022-08-19T11:59:08;101148.72;;;35.72;35.78
13050;BME280;6591;51.446;5.404;2022-08-19T12:01:41;101154.94;;;35.67;35.83
13050;BME280;6591;51.446;5.404;2022-08-19T12:04:10;101155.84;;;35.55;35.64
13050;BME280;6591;51.446;5.404;2022-08-19T12:06:39;101155.53;;;35.45;36.13
13050;BME280;6591;51.446;5.404;2022-08-19T12:09:09;101158.53;;;35.43;36.45
13050;BME280;6591;51.446;5.404;2022-08-19T12:11:38;101163.59;;;35.46;36.04
13050;BME280;6591;51.446;5.404;2022-08-19T12:14:06;101160.19;;;35.44;36.06
13050;BME280;6591;51.446;5.404;2022-08-19T12:16:33;101169.00;;;35.35;36.10
13050;BME280;6591;51.446;5.404;2022-08-19T12:19:05;101162.50;;;35.22;35.91
13050;BME280;6591;51.446;5.404;2022-08-19T12:21:35;101159.13;;;35.14;36.75
13050;BME280;6591;51.446;5.404;2022-08-19T12:24:04;101161.91;;;35.07;36.09
13050;BME280;6591;51.446;5.404;2022-08-19T12:26:35;101153.47;;;35.02;36.38
13050;BME280;6591;51.446;5.404;2022-08-19T12:29:19;101155.44;;;34.95;36.60
13050;BME280;6591;51.446;5.404;2022-08-19T12:31:50;101154.63;;;34.88;36.02
13050;BME280;6591;51.446;5.404;2022-08-19T12:34:17;101161.47;;;34.79;35.98
13050;BME280;6591;51.446;5.404;2022-08-19T12:36:46;101161.50;;;34.66;36.10
13050;BME280;6591;51.446;5.404;2022-08-19T12:39:16;101152.22;;;34.54;36.81
13050;BME280;6591;51.446;5.404;2022-08-19T12:41:43;101157.09;;;34.52;36.92
13050;BME280;6591;51.446;5.404;2022-08-19T12:44:22;101152.44;;;34.52;36.98
13050;BME280;6591;51.446;5.404;2022-08-19T12:47:01;101149.22;;;34.55;37.25
13050;BME280;6591;51.446;5.404;2022-08-19T12:49:33;101150.44;;;34.66;37.11
13050;BME280;6591;51.446;5.404;2022-08-19T12:52:23;101138.31;;;34.80;37.33
13050;BME280;6591;51.446;5.404;2022-08-19T12:54:53;101145.41;;;35.01;37.46
13050;BME280;6591;51.446;5.404;2022-08-19T12:57:27;101145.53;;;35.19;36.68
13050;BME280;6591;51.446;5.404;2022-08-19T13:00:11;101136.63;;;35.42;36.81
13050;BME280;6591;51.446;5.404;2022-08-19T13:02:43;101137.94;;;35.64;36.50
13050;BME280;6591;51.446;5.404;2022-08-19T13:05:15;101132.63;;;35.87;36.75
13050;BME280;6591;51.446;5.404;2022-08-19T13:07:47;101132.41;;;36.07;36.00
13050;BME280;6591;51.446;5.404;2022-08-19T13:10:17;101126.13;;;36.18;35.75
13050;BME280;6591;51.446;5.404;2022-08-19T13:12:47;101125.22;;;36.24;35.17
13050;BME280;6591;51.446;5.404;2022-08-19T13:15:17;101135.06;;;36.20;35.29
13050;BME280;6591;51.446;5.404;2022-08-19T13:17:52;101136.00;;;36.07;34.41
13050;BME280;6591;51.446;5.404;2022-08-19T13:20:21;101132.63;;;35.87;34.71
13050;BME280;6591;51.446;5.404;2022-08-19T13:22:49;101129.84;;;35.69;35.20
13050;BME280;6591;51.446;5.404;2022-08-19T13:25:17;101131.59;;;35.57;35.23
13050;BME280;6591;51.446;5.404;2022-08-19T13:27:48;101123.38;;;35.50;35.32
13050;BME280;6591;51.446;5.404;2022-08-19T13:30:18;101131.66;;;35.50;35.77
13050;BME280;6591;51.446;5.404;2022-08-19T13:33:05;101131.66;;;35.50;35.59
13050;BME280;6591;51.446;5.404;2022-08-19T13:35:50;101122.53;;;35.50;35.81
13050;BME280;6591;51.446;5.404;2022-08-19T13:38:27;101116.94;;;35.56;35.39
13050;BME280;6591;51.446;5.404;2022-08-19T13:40:55;101116.88;;;35.63;34.98
13050;BME280;6591;51.446;5.404;2022-08-19T13:43:27;101119.63;;;35.70;35.26